Historyczne dane pomiarowe

Dodano dane terminowe – wersja testowa.

Dane z okresu 1951-2019

Wersja bazy: 1.34 [2019-03-16, lista zmian], aktualizacja planowana na 2019-04-15

Dane meteo z obszaru Polski uzyskane na podstawie danych udostępnionych przez Instytut Meteorologii i Gospodarki Wodnej – Państwowy Instytut Badawczy.

 

Wybierz Datę:    

       

TemperaturaWilgotnośćWiatrCiśnienieOpadyŚniegCzas trwania zjawisk
 Stacja t tx tn tng RH VA  wxwx mslp ppp RRR   cm mm wxwxwxwxwxwxwx
2019-06-19 23.6 29.4 16.9 15.8 62.8 17.6- 1.5--1012.6 978.8 0.0 0.0 0.0x- 10.2-------
2019-06-18 20.6 25.7 15.0 14.2 63.5 15.1- 2.4--1019.1 984.6 0.0 0.0 0.0x- 9.5-------
2019-06-17 19.9 24.3 14.5 14.0 54.3 12.0- 2.9--1021.1 986.5 0.0 0.0 0.0x- 13.2-------
2019-06-16 21.9 28.3 17.8 17.4 67.5 17.6- 2.5--1016.1 981.9 5.0 5.0 0.0x- 6.6-------
2019-06-15 26.8 33.7 19.9 19.6 56.5 18.5- 2.4--1013.3 979.8 0.1 0.0 0.1x- 11.4-------
2019-06-14 23.0 27.8 18.7 18.2 74.0 20.4- 2.1--1018.4 984.3 0.0 0.0 0.0x- 8.3-------
2019-06-13 26.0 32.6 21.0 18.0 56.3 17.8- 2.1--1012.8 979.2 0.3 0.2 0.1x- 10.2-------
2019-06-12 26.5 32.1 19.4 17.7 48.0 15.8- 2.0--1011.7 978.2 0.0 0.0 0.0x- 14.1-------
2019-06-11 26.2 32.4 19.1 17.2 53.6 17.2- 2.0--1012.5 979.0 0.0 0.0 0.0x- 12.9-------
2019-06-10 24.7 30.3 17.8 17.1 57.9 17.4- 2.1--1016.4 982.5 0.0 0.0 0.0x- 11.9-------
2019-06-09 20.0 25.9 11.4 8.2 53.4 11.5- 1.9--1025.1 990.4 0.0 0.0 0.0x- 14.4-------
2019-06-08 20.5 26.8 16.4 14.4 66.4 15.8- 1.8--1019.0 984.6 0.0 0.0 0.0x- 9.7-------
2019-06-07 20.3 24.5 15.8 14.9 73.9 17.3- 1.4--1014.4 980.1 0.0 0.0 0.0x- 8.0-------
2019-06-06 21.4 26.7 15.2 13.0 60.5 14.8- 2.0--1011.2 977.2 0.0 0.0 0.0x- 11.3-------
2019-06-05 21.8 27.0 16.5 16.0 62.9 16.0- 2.8--1011.4 977.4 0.1 0.1 0.0x- 12.1-------
2019-06-04 23.0 28.5 16.1 13.4 50.8 13.8- 2.1--1013.8 979.9 0.0 0.0 0.0x- 13.2-------
2019-06-03 21.5 27.0 13.7 9.8 56.1 13.5- 1.6--1017.6 983.4 0.0 0.0 0.0x- 14.8-------
2019-06-02 20.1 26.9 13.2 10.6 64.8 14.5- 1.4--1019.4 984.9 0.0 0.0 0.0x- 12.7-------
2019-06-01 19.3 23.5 13.0 10.0 66.9 14.7- 2.3--1021.7 987.0 0.0 0.0 0.0x- 10.6-------
2019-05-31 15.9 22.3 9.2 8.5 63.6 10.9- 1.6--1023.7 988.6 0.0 0.0 0.0x- 10.0-------
2019-05-30 11.9 16.4 6.3 5.6 58.3 7.8- 2.3--1024.4 988.8 0.0 0.0 0.0x- 10.1-------
2019-05-29 11.7 17.0 9.6 9.6 81.9 11.2- 4.1--1015.9 980.5 0.0 0.0 0.0x- 2.6-------
2019-05-28 16.7 21.5 14.3 14.3 83.6 15.8- 2.0--1005.3 970.9 5.0 1.3 3.7x- 3.1-------
2019-05-27 18.8 24.3 11.9 9.3 65.3 13.8- 2.1--1010.1 975.7 1.4 0.0 1.4x- 8.4-------
2019-05-26 16.8 22.3 10.7 8.7 64.0 11.8- 1.6--1013.8 979.1 0.0 0.0 0.0x- 11.1-------
2019-05-25 15.7 21.8 7.9 4.8 66.8 11.5- 1.4--1013.2 978.4 0.0 0.0 0.0x- 11.3-------
2019-05-24 13.3 17.7 9.9 9.8 75.5 11.4- 2.0--1014.4 979.3 0.0 0.0 0.0x- 2.6-------
2019-05-23 11.7 15.4 10.6 10.9 95.8 13.2- 4.6--1013.5 978.2 0.5 0.2 0.3x- 0.0-------
2019-05-22 13.8 17.4 12.1 11.5 86.8 13.6- 3.8--1005.2 970.5 13.6 1.4 12.2x- 0.7-------
2019-05-21 14.6 19.1 11.7 8.5 81.1 13.4- 2.1--1003.8 969.2 7.5 7.5 0.0x- 0.8-------
2019-05-20 17.7 22.2 13.0 11.3 68.0 13.1- 2.6--1003.9 969.7 0.2 0.0 0.2x- 8.0-------
2019-05-19 17.2 24.5 11.4 8.4 73.4 14.1- 2.4--1006.9 972.5 0.0 0.0 0.0x- 11.3-------
2019-05-18 16.3 22.9 9.8 7.6 69.8 12.1- 1.3--1010.3 975.7 0.1 0.0 0.1x- 11.1-------
2019-05-17 13.5 19.8 9.9 9.9 85.0 12.9- 1.6--1012.3 977.3 3.9 2.8 1.1x- 2.5-------
2019-05-16 10.5 13.8 8.2 8.4 89.1 11.3- 1.0--1014.9 979.4 8.7 0.0 8.7x- 2.2-------
2019-05-15 7.5 8.7 5.7 5.8 97.8 10.2- 3.4--1019.0 983.0 4.1 1.9 2.2x- 0.0-------
2019-05-14 5.7 8.8 3.3 2.3 86.8 7.9- 3.6--1026.9 990.4 12.0 4.1 7.9x- 0.5-------
2019-05-13 7.4 11.1 5.4 5.5 75.5 7.7- 3.4--1031.3 994.8 0.0 0.0 0.0x- 0.6-------
2019-05-12 10.3 16.5 6.8 6.9 81.8 10.2- 3.5--1020.9 985.2 1.7 1.2 0.5x- 0.9-------
2019-05-11 13.7 18.3 7.6 5.9 64.1 9.5- 1.3--1012.8 977.8 0.0 0.0 0.0x- 6.8-------
2019-05-10 10.9 16.8 7.0 7.5 85.6 11.0- 1.4--1008.0 972.8 3.7 3.5 0.2x- 3.2-------
2019-05-09 9.2 12.7 7.4 6.8 79.5 9.2- 2.4--1005.5 970.2 3.5 3.1 0.4x- 0.0-------
2019-05-08 10.2 15.7 4.2 0.4 55.6 6.6- 2.3--1014.2 978.7 0.0 0.0 0.0x- 7.6-------
2019-05-07 7.7 11.9 3.0 1.3 59.5 6.1- 3.8--1017.2 981.3 0.0 0.0 0.0x- 8.1-------
2019-05-06 7.9 11.6 5.1 5.2 49.1 5.1- 3.8--1014.5 978.7 0.0 0.0 0.0x- 2.8-------
2019-05-05 5.9 11.8 2.4 2.6 69.1 6.2- 4.8--1012.3 976.4 0.0 0.0 0.0x- 0.2-------
2019-05-04 9.0 15.2 2.6 0.5 61.4 6.6- 2.5--1006.5 971.2 0.0 0.0 0.0x- 8.4-------
2019-05-03 8.1 13.6 6.4 4.3 71.9 7.8- 1.9--1007.1 971.6 0.1 0.1 0.0x- 2.1-------
2019-05-02 12.8 18.3 7.7 7.0 63.4 9.1- 2.4--1005.1 970.2 0.0 0.0 0.0x- 9.7-------
2019-05-01 11.9 17.0 7.3 4.9 57.4 7.6- 4.0--1009.2 974.1 0.5 0.0 0.5x- 11.8-------
2019-04-30 12.7 16.9 9.8 9.9 75.1 10.7- 3.4--1011.6 976.5 0.0 0.0 0.0x- 5.8-------
2019-04-29 9.8 10.8 8.5 8.3 96.9 11.7- 2.5--1012.6 977.1 5.7 3.7 2.0x- 0.0-------
2019-04-28 9.1 10.4 8.5 7.8 90.4 10.4- 3.4--1014.5 978.9 32.9 14.0 18.9x- 0.0-------
2019-04-27 11.6 21.4 9.8 9.8 80.5 10.9- 1.8--1012.1 976.8 0.2 0.2 0.0x- 0.0-------
2019-04-26 20.3 26.9 13.9 10.5 44.1 10.0- 2.6--1009.7 975.6 0.0 0.0 0.0x- 9.9-------
2019-04-25 19.0 25.4 13.2 11.4 50.0 10.5- 2.4--1013.5 979.1 0.0 0.0 0.0x- 12.0-------
2019-04-24 14.8 19.8 11.0 9.7 54.4 9.2- 3.4--1014.3 979.4 0.0 0.0 0.0x- 3.8-------
2019-04-23 12.6 17.6 6.4 5.8 47.9 7.0- 4.4--1019.8 984.4 0.0 0.0 0.0x- 8.7-------
2019-04-22 11.2 17.5 5.2 5.4 54.8 6.9- 3.6--1030.6 994.6 0.0 0.0 0.0x- 5.1-------
2019-04-21 11.4 17.7 4.4 1.4 45.6 5.8- 2.6--1030.5 994.6 0.0 0.0 0.0x- 11.6-------
207.5 ms

 

Źródłem pochodzenia danych jest Instytut Meteorologii i Gospodarki Wodnej – Państwowy Instytut Badawczy. Dane Instytutu Meteorologii i Gospodarki Wodnej – Państwowego Instytutu Badawczego zostały przetworzone.

Dane źródłowe można odnaleźć na stronie https://dane.imgw.pl